Time;durP1;ratioP1;P1;durP2;ratioP2;P2;SDS_P1;SDS_P2;PMS_P1;PMS_P2;Temp;Humidity;BMP_temperature;BMP_pressure;BME280_temperature;BME280_humidity;BME280_pressure;Samples;Min_cycle;Max_cycle;Signal;HPM_P1;HPM_P2
2020/12/07 00:00:49;;;;;;;;;;;20.40;95.20;;;;;;6279782;22;19919;-81
2020/12/07 00:03:58;;;;;;;;;;;20.40;95.30;;;;;;6281524;22;19941;-82
2020/12/07 00:06:50;;;;;;;;;;;20.40;95.40;;;;;;6181984;23;20043;-82
2020/12/07 00:09:26;;;;;;;;;;;20.30;95.40;;;;;;6255439;22;19941;-80
2020/12/07 00:12:05;;;;;;;;;;;20.30;95.50;;;;;;6257642;22;19937;-82
2020/12/07 00:14:43;;;;;;;;;;;20.30;95.50;;;;;;6281292;22;20346;-81
2020/12/07 00:17:33;;;;;;;;;;;20.30;95.50;;;;;;6283403;22;19929;-81
2020/12/07 00:20:21;;;;;;;;;;;20.40;95.40;;;;;;6306915;22;20482;-83
2020/12/07 00:23:10;;;;;;;;;;;20.40;95.40;;;;;;6266370;22;19915;-82
2020/12/07 00:26:05;;;;;;;;;;;20.40;95.40;;;;;;6325687;22;19926;-82
2020/12/07 00:28:40;;;;;;;;;;;20.40;95.30;;;;;;6285484;22;19938;-82
2020/12/07 00:31:11;;;;;;;;;;;20.40;95.30;;;;;;6289769;22;19914;-83
2020/12/07 00:33:58;;;;;;;;;;;20.40;95.30;;;;;;6306188;22;19946;-81
2020/12/07 00:36:50;;;;;;;;;;;20.40;95.20;;;;;;6336026;22;19948;-81
2020/12/07 00:39:17;;;;;;;;;;;20.40;95.20;;;;;;6344915;22;19939;-82
2020/12/07 00:41:56;;;;;;;;;;;20.40;95.20;;;;;;6335090;22;19955;-84
2020/12/07 00:44:36;;;;;;;;;;;20.30;95.20;;;;;;6329072;22;19925;-82
2020/12/07 00:48:01;;;;;;;;;;;20.30;95.30;;;;;;6091970;23;19917;-83
2020/12/07 00:51:04;;;;;;;;;;;20.30;95.40;;;;;;6072058;23;19921;-82
2020/12/07 00:53:42;;;;;;;;;;;20.30;95.50;;;;;;6073036;23;19928;-81
2020/12/07 00:56:38;;;;;;;;;;;20.20;95.50;;;;;;6072654;23;20345;-81
2020/12/07 00:59:06;;;;;;;;;;;20.20;95.60;;;;;;6071016;23;20269;-84
2020/12/07 01:01:39;;;;;;;;;;;20.10;95.60;;;;;;6113766;23;19925;-82
2020/12/07 01:05:01;;;;;;;;;;;20.10;95.60;;;;;;6081474;23;19901;-82
2020/12/07 01:10:57;;;;;;;;;;;20.10;95.80;;;;;;6096433;23;19924;-83
2020/12/07 01:14:09;;;;;;;;;;;20.00;95.80;;;;;;6065301;23;19935;-81
2020/12/07 01:20:13;;;;;;;;;;;20.00;95.90;;;;;;6110250;23;19935;-83
2020/12/07 01:23:15;;;;;;;;;;;19.90;95.90;;;;;;6078393;23;19917;-84
2020/12/07 01:29:47;;;;;;;;;;;;;;;;;;;;;
2020/12/07 01:32:30;;;;;;;;;;;19.90;96.10;;;;;;6302465;22;19918;-81
2020/12/07 01:35:09;;;;;;;;;;;19.90;96.10;;;;;;6257632;22;19925;-82
2020/12/07 01:37:40;;;;;;;;;;;19.90;96.20;;;;;;6281333;22;19915;-84
2020/12/07 01:40:48;;;;;;;;;;;;;;;;;;;;;
2020/12/07 01:43:35;;;;;;;;;;;19.90;96.10;;;;;;6280284;22;19915;-82
2020/12/07 01:46:43;;;;;;;;;;;19.90;96.00;;;;;;6263063;22;20305;-82
2020/12/07 01:49:40;;;;;;;;;;;19.90;96.00;;;;;;6278315;22;19915;-82
2020/12/07 01:56:55;;;;;;;;;;;20.00;96.00;;;;;;6181840;22;19942;-81
2020/12/07 02:00:36;;;;;;;;;;;20.10;95.90;;;;;;6197084;23;19912;-81
2020/12/07 02:07:57;;;;;;;;;;;;;;;;;;;;;
2020/12/07 02:11:05;;;;;;;;;;;20.20;95.60;;;;;;6160148;23;19905;-81
2020/12/07 02:13:35;;;;;;;;;;;20.30;95.50;;;;;;6158767;23;19916;-84
2020/12/07 02:16:02;;;;;;;;;;;20.30;95.50;;;;;;6183931;23;19958;-82
2020/12/07 02:18:40;;;;;;;;;;;20.20;95.40;;;;;;6180875;23;20352;-82
2020/12/07 02:21:07;;;;;;;;;;;20.20;95.40;;;;;;6183344;23;19927;-81
2020/12/07 02:23:59;;;;;;;;;;;20.20;95.50;;;;;;6179240;23;19916;-81
2020/12/07 02:26:29;;;;;;;;;;;20.10;95.50;;;;;;6158449;23;19916;-83
2020/12/07 02:28:57;;;;;;;;;;;20.10;95.50;;;;;;6158685;23;19987;-82
2020/12/07 02:31:34;;;;;;;;;;;20.10;95.60;;;;;;6160131;23;19923;-81
2020/12/07 02:34:02;;;;;;;;;;;20.00;95.70;;;;;;6254368;22;19921;-84
2020/12/07 02:36:30;;;;;;;;;;;19.90;95.70;;;;;;6255361;22;20364;-80
2020/12/07 02:39:14;;;;;;;;;;;19.90;95.80;;;;;;6280447;22;19915;-81
2020/12/07 02:41:47;;;;;;;;;;;19.90;95.90;;;;;;6257228;22;20250;-82
2020/12/07 02:44:15;;;;;;;;;;;19.80;95.90;;;;;;6257362;22;19955;-83
2020/12/07 02:46:43;;;;;;;;;;;19.80;96.00;;;;;;6282361;22;19923;-83
2020/12/07 02:49:12;;;;;;;;;;;19.80;96.00;;;;;;6280224;22;19926;-82
2020/12/07 02:51:46;;;;;;;;;;;19.80;96.00;;;;;;6261126;22;20269;-81
2020/12/07 02:54:21;;;;;;;;;;;19.80;96.10;;;;;;6282444;22;19919;-81
2020/12/07 02:56:49;;;;;;;;;;;19.70;96.10;;;;;;6284833;22;19923;-82
2020/12/07 02:59:20;;;;;;;;;;;19.70;96.20;;;;;;6263802;22;19915;-82
2020/12/07 03:01:48;;;;;;;;;;;19.70;96.20;;;;;;6294323;22;19929;-79
2020/12/07 03:04:15;;;;;;;;;;;19.70;96.30;;;;;;6268935;22;19919;-80
2020/12/07 03:06:45;;;;;;;;;;;19.70;96.30;;;;;;6290150;22;20427;-82
2020/12/07 03:09:12;;;;;;;;;;;19.60;96.30;;;;;;6268580;22;19918;-80
2020/12/07 03:12:08;;;;;;;;;;;19.60;96.30;;;;;;6266430;22;19913;-82
2020/12/07 03:15:05;;;;;;;;;;;19.60;96.40;;;;;;6302311;22;19903;-82
2020/12/07 03:17:37;;;;;;;;;;;19.60;96.40;;;;;;6288516;22;20022;-83
2020/12/07 03:20:04;;;;;;;;;;;19.50;96.40;;;;;;6285825;22;19914;-84
2020/12/07 03:22:34;;;;;;;;;;;19.60;96.40;;;;;;6283867;22;19915;-83
2020/12/07 03:25:02;;;;;;;;;;;19.50;96.40;;;;;;6287381;22;19914;-82
2020/12/07 03:27:35;;;;;;;;;;;19.50;96.50;;;;;;6287177;22;20349;-83
2020/12/07 03:30:02;;;;;;;;;;;19.50;96.50;;;;;;6290003;22;20306;-82
2020/12/07 03:32:30;;;;;;;;;;;19.60;96.50;;;;;;6332685;22;19913;-82
2020/12/07 03:35:00;;;;;;;;;;;19.60;96.40;;;;;;6288843;22;19937;-81
2020/12/07 03:37:28;;;;;;;;;;;19.60;96.40;;;;;;6289087;22;19919;-82
2020/12/07 03:40:01;;;;;;;;;;;19.60;96.30;;;;;;6323981;22;19919;-82
2020/12/07 03:42:35;;;;;;;;;;;19.60;96.30;;;;;;6292352;22;19915;-81
2020/12/07 03:45:05;;;;;;;;;;;19.70;96.20;;;;;;6259474;22;19969;-82
2020/12/07 03:47:36;;;;;;;;;;;19.70;96.20;;;;;;6285170;22;19929;-81
2020/12/07 03:50:12;;;;;;;;;;;19.70;96.10;;;;;;6264322;22;19925;-83
2020/12/07 03:52:42;;;;;;;;;;;19.70;96.10;;;;;;6264373;22;19926;-83
2020/12/07 03:55:30;;;;;;;;;;;19.70;96.10;;;;;;6264064;22;19915;-83
2020/12/07 03:58:46;;;;;;;;;;;19.70;96.00;;;;;;6298497;22;19918;-83
2020/12/07 04:01:51;;;;;;;;;;;;;;;;;;;;;
2020/12/07 04:09:42;;;;;;;;;;;;;;;;;;;;;
2020/12/07 04:17:13;;;;;;;;;;;;;;;;;;;;;
2020/12/07 04:20:52;;;;;;;;;;;19.70;96.10;;;;;;6322467;22;19914;-82
2020/12/07 04:24:02;;;;;;;;;;;19.70;96.10;;;;;;6202438;23;20090;-81
2020/12/07 04:31:15;;;;;;;;;;;19.70;96.10;;;;;;6201685;23;19912;-84
2020/12/07 04:34:51;;;;;;;;;;;19.60;96.00;;;;;;6241242;22;19925;-82
2020/12/07 04:37:57;;;;;;;;;;;19.60;96.00;;;;;;6262653;22;19914;-83
2020/12/07 04:41:07;;;;;;;;;;;19.60;96.10;;;;;;6262055;22;20000;-82
2020/12/07 04:44:36;;;;;;;;;;;;;;;;;;;;;
2020/12/07 04:47:33;;;;;;;;;;;19.60;96.10;;;;;;6286977;22;20227;-80
2020/12/07 04:50:42;;;;;;;;;;;19.50;96.10;;;;;;6270838;22;19917;-82
2020/12/07 04:53:33;;;;;;;;;;;19.50;96.10;;;;;;6287156;22;19925;-81
2020/12/07 04:56:03;;;;;;;;;;;19.50;96.10;;;;;;6293125;22;19921;-82
2020/12/07 04:59:02;;;;;;;;;;;19.40;96.10;;;;;;6310492;22;20342;-82
2020/12/07 05:02:22;;;;;;;;;;;19.40;96.30;;;;;;6148224;23;19916;-82
2020/12/07 05:05:38;;;;;;;;;;;19.60;96.10;;;;;;6178064;23;19915;-82
2020/12/07 05:09:55;;;;;;;;;;;19.70;96.10;;;;;;6052317;23;19926;-83
2020/12/07 05:13:25;;;;;;;;;;;20.00;95.60;;;;;;5906430;24;19923;-82
2020/12/07 05:16:06;;;;;;;;;;;20.20;95.00;;;;;;5950384;24;19923;-83
2020/12/07 05:18:43;;;;;;;;;;;20.30;94.40;;;;;;5905057;24;19923;-81
2020/12/07 05:21:17;;;;;;;;;;;20.50;94.00;;;;;;5951003;24;19919;-83
2020/12/07 05:23:52;;;;;;;;;;;20.60;93.50;;;;;;5905625;24;19938;-84
2020/12/07 05:26:22;;;;;;;;;;;20.70;93.10;;;;;;5981420;23;20343;-81
2020/12/07 05:29:04;;;;;;;;;;;20.70;92.90;;;;;;6039364;23;19918;-82
2020/12/07 05:31:46;;;;;;;;;;;20.80;92.80;;;;;;6016990;23;20234;-80
2020/12/07 05:34:22;;;;;;;;;;;20.70;92.90;;;;;;6050869;23;19922;-81
2020/12/07 05:36:55;;;;;;;;;;;20.70;93.00;;;;;;6041339;23;19918;-79
2020/12/07 05:39:26;;;;;;;;;;;20.70;93.00;;;;;;6079547;23;19927;-80
2020/12/07 05:41:54;;;;;;;;;;;20.60;93.20;;;;;;6113858;23;19905;-81
2020/12/07 05:56:22;;;;;;;;;;;20.80;92.90;;;;;;6091160;23;19909;-83
2020/12/07 05:59:50;;;;;;;;;;;20.90;92.90;;;;;;6059000;23;19932;-80
2020/12/07 06:27:42;;;;;;;;;;;21.00;92.90;;;;;;6163485;23;19916;-86
2020/12/07 06:31:16;;;;;;;;;;;21.00;93.10;;;;;;6104732;23;19916;-88
2020/12/07 06:34:58;;;;;;;;;;;;;;;;;;;;;
2020/12/07 06:37:59;;;;;;;;;;;21.00;95.10;;;;;;6139169;23;19967;-82
2020/12/07 06:41:43;;;;;;;;;;;21.20;95.30;;;;;;6068856;23;19940;-83
2020/12/07 06:47:16;;;;;;;;;;;22.00;94.70;;;;;;6162474;23;19923;-84
2020/12/07 06:50:03;;;;;;;;;;;22.30;94.30;;;;;;6168473;23;19921;-81
2020/12/07 06:52:36;;;;;;;;;;;22.70;93.80;;;;;;6166751;23;19924;-83
2020/12/07 06:55:06;;;;;;;;;;;22.80;93.40;;;;;;6162653;23;19921;-82
2020/12/07 06:57:36;;;;;;;;;;;23.00;92.80;;;;;;6147628;23;19923;-84
2020/12/07 07:00:08;;;;;;;;;;;23.10;92.80;;;;;;6171878;23;19938;-83
2020/12/07 07:02:57;;;;;;;;;;;23.10;91.90;;;;;;6204748;23;20035;-82
2020/12/07 07:05:29;;;;;;;;;;;23.10;92.30;;;;;;6291935;22;19921;-83
2020/12/07 07:08:09;;;;;;;;;;;23.20;92.50;;;;;;6289728;22;19919;-85
2020/12/07 07:10:36;;;;;;;;;;;23.10;92.60;;;;;;6311926;22;19919;-84
2020/12/07 07:13:07;;;;;;;;;;;23.10;92.40;;;;;;6284788;22;19915;-85
2020/12/07 07:32:51;;;;;;;;;;;23.00;92.90;;;;;;6319951;22;19914;-81
2020/12/07 07:35:50;;;;;;;;;;;23.00;94.30;;;;;;6285198;22;19915;-81
2020/12/07 07:38:40;;;;;;;;;;;;;;;;;;;;;
2020/12/07 07:41:33;;;;;;;;;;;;;;;;;;;;;
2020/12/07 07:47:30;;;;;;;;;;;23.10;94.40;;;;;;6284331;22;19916;-81
2020/12/07 08:26:17;;;;;;;;;;;22.70;96.10;;;;;;6291099;22;19919;-79
2020/12/07 08:32:45;;;;;;;;;;;22.90;95.80;;;;;;6327551;22;19922;-82
2020/12/07 08:35:36;;;;;;;;;;;23.10;95.40;;;;;;6278134;22;20241;-82
2020/12/07 08:42:58;;;;;;;;;;;;;;;;;;;;;
2020/12/07 09:19:04;;;;;;;;;;;22.70;94.30;;;;;;6280813;22;19911;-78
2020/12/07 09:21:48;;;;;;;;;;;22.50;75.80;;;;;;6272567;22;20235;-81
2020/12/07 09:24:18;;;;;;;;;;;22.10;72.00;;;;;;6290039;22;19918;-82
2020/12/07 09:26:45;;;;;;;;;;;22.00;75.90;;;;;;6292973;22;20289;-80
2020/12/07 09:29:12;;;;;;;;;;;22.00;78.50;;;;;;6291060;22;19915;-82
2020/12/07 09:31:39;;;;;;;;;;;22.10;80.30;;;;;;6318072;22;19919;-81
2020/12/07 09:34:08;;;;;;;;;;;22.20;81.40;;;;;;6262586;22;20372;-82
2020/12/07 09:45:12;;;;;;;;;;;22.60;83.80;;;;;;6166678;23;19919;-82
2020/12/07 10:08:05;;;;;;;;;;;22.80;86.40;;;;;;6126936;23;19905;-80
2020/12/07 10:10:42;;;;;;;;;;;22.90;86.40;;;;;;6206258;23;19937;-79
2020/12/07 10:13:14;;;;;;;;;;;23.00;86.30;;;;;;6241948;23;19919;-81
2020/12/07 10:15:41;;;;;;;;;;;23.10;86.10;;;;;;6242986;23;19915;-79
2020/12/07 10:18:08;;;;;;;;;;;23.10;86.00;;;;;;6229357;23;19919;-81
2020/12/07 10:20:38;;;;;;;;;;;23.10;86.20;;;;;;6232190;23;19919;-81
2020/12/07 10:23:05;;;;;;;;;;;23.00;86.50;;;;;;6231573;23;19923;-84
2020/12/07 10:25:36;;;;;;;;;;;23.00;86.50;;;;;;6215227;22;19915;-82
2020/12/07 10:28:07;;;;;;;;;;;23.00;84.60;;;;;;6296969;22;19919;-84
2020/12/07 10:30:43;;;;;;;;;;;23.00;85.30;;;;;;6289491;22;19968;-83
2020/12/07 10:33:11;;;;;;;;;;;23.00;85.60;;;;;;6289714;22;19915;-83
2020/12/07 10:35:38;;;;;;;;;;;23.00;86.00;;;;;;6290383;22;19921;-82
2020/12/07 10:38:05;;;;;;;;;;;22.90;86.30;;;;;;6287353;22;19919;-82
2020/12/07 10:40:32;;;;;;;;;;;22.90;86.70;;;;;;6315619;22;19932;-82
2020/12/07 10:43:10;;;;;;;;;;;22.90;86.90;;;;;;6283735;22;19919;-82
2020/12/07 10:45:40;;;;;;;;;;;22.90;87.10;;;;;;6260023;22;19919;-84
2020/12/07 10:48:10;;;;;;;;;;;22.80;87.30;;;;;;6301316;22;19905;-80
2020/12/07 10:50:48;;;;;;;;;;;22.80;87.60;;;;;;6295806;22;19915;-85
2020/12/07 10:53:15;;;;;;;;;;;22.80;87.60;;;;;;6300755;22;19915;-83
2020/12/07 10:55:42;;;;;;;;;;;22.80;87.90;;;;;;6290375;22;19915;-82
2020/12/07 10:58:10;;;;;;;;;;;22.80;88.00;;;;;;6288407;22;19925;-83
2020/12/07 11:00:38;;;;;;;;;;;22.80;88.30;;;;;;6315078;22;19919;-82
2020/12/07 11:03:05;;;;;;;;;;;22.70;88.40;;;;;;6290985;22;20016;-83
2020/12/07 11:05:50;;;;;;;;;;;22.70;88.60;;;;;;6291234;22;19925;-83
2020/12/07 11:44:53;;;;;;;;;;;22.60;90.10;;;;;;6298840;22;19907;-80
2020/12/07 11:47:46;;;;;;;;;;;22.70;89.80;;;;;;6321317;22;19921;-84
2020/12/07 11:50:22;;;;;;;;;;;22.70;89.40;;;;;;6315075;22;19925;-82
2020/12/07 11:52:55;;;;;;;;;;;22.80;89.40;;;;;;6322662;22;19922;-80
2020/12/07 11:55:36;;;;;;;;;;;22.80;89.20;;;;;;6325473;22;19921;-80
2020/12/07 12:01:04;;;;;;;;;;;22.90;88.70;;;;;;6312566;22;19919;-84
2020/12/07 12:03:34;;;;;;;;;;;23.00;88.60;;;;;;6325313;22;19925;-83
2020/12/07 12:06:01;;;;;;;;;;;23.00;88.70;;;;;;6302462;22;19915;-81
2020/12/07 12:08:41;;;;;;;;;;;23.00;88.50;;;;;;6329888;22;19919;-80
2020/12/07 12:11:19;;;;;;;;;;;23.10;88.20;;;;;;6320199;22;19922;-84
2020/12/07 12:14:09;;;;;;;;;;;23.10;88.20;;;;;;6314039;22;19915;-83
2020/12/07 12:17:12;;;;;;;;;;;23.00;88.30;;;;;;6240426;23;19922;-83
2020/12/07 12:19:50;;;;;;;;;;;22.80;89.20;;;;;;6269337;23;19915;-82
2020/12/07 12:22:17;;;;;;;;;;;22.60;89.90;;;;;;6234904;23;19921;-81
2020/12/07 12:24:49;;;;;;;;;;;22.50;90.20;;;;;;6260692;23;19962;-82
2020/12/07 12:27:17;;;;;;;;;;;22.40;90.50;;;;;;6259412;23;19920;-80
2020/12/07 12:29:57;;;;;;;;;;;22.30;90.70;;;;;;6260609;23;19919;-84
2020/12/07 12:32:31;;;;;;;;;;;22.20;90.90;;;;;;6258216;23;20355;-83
2020/12/07 12:34:58;;;;;;;;;;;22.10;91.20;;;;;;6260399;23;19915;-85
2020/12/07 12:38:12;;;;;;;;;;;22.00;91.40;;;;;;6275769;23;19913;-80
2020/12/07 12:40:52;;;;;;;;;;;21.90;91.80;;;;;;6242394;23;19919;-81
2020/12/07 12:43:34;;;;;;;;;;;21.90;91.90;;;;;;6262479;23;19916;-82
2020/12/07 12:46:28;;;;;;;;;;;22.00;91.80;;;;;;6250959;23;19915;-83
2020/12/07 12:48:58;;;;;;;;;;;22.10;91.60;;;;;;6322373;22;19921;-81
2020/12/07 12:51:39;;;;;;;;;;;22.10;91.50;;;;;;6324333;22;19918;-83
2020/12/07 12:55:16;;;;;;;;;;;;;;;;;;;;;
2020/12/07 12:57:48;;;;;;;;;;;22.00;91.50;;;;;;6273806;22;19940;-81
2020/12/07 13:00:15;;;;;;;;;;;22.10;91.50;;;;;;6318024;22;19919;-82
2020/12/07 13:02:42;;;;;;;;;;;22.10;91.40;;;;;;6318660;22;20357;-83
2020/12/07 13:05:14;;;;;;;;;;;22.10;91.40;;;;;;6320265;22;19915;-82
2020/12/07 13:07:52;;;;;;;;;;;22.10;91.40;;;;;;6290513;22;19929;-85
2020/12/07 13:10:20;;;;;;;;;;;22.10;91.40;;;;;;6320919;22;20353;-83
2020/12/07 13:12:51;;;;;;;;;;;22.20;91.40;;;;;;6281662;22;19915;-83
2020/12/07 13:15:27;;;;;;;;;;;22.20;91.50;;;;;;6320016;22;19930;-83
2020/12/07 13:18:58;;;;;;;;;;;22.20;91.50;;;;;;6319642;22;20432;-81
2020/12/07 13:22:37;;;;;;;;;;;22.50;90.80;;;;;;6286450;22;19919;-83
2020/12/07 13:25:34;;;;;;;;;;;22.60;90.40;;;;;;6270570;22;19922;-81
2020/12/07 13:28:26;;;;;;;;;;;22.70;90.10;;;;;;6307803;22;19918;-82
2020/12/07 13:30:57;;;;;;;;;;;22.80;89.70;;;;;;6266128;22;20265;-82
2020/12/07 13:33:43;;;;;;;;;;;22.90;89.30;;;;;;6314600;22;20290;-82
2020/12/07 13:36:30;;;;;;;;;;;23.00;89.00;;;;;;6301774;22;19918;-80
2020/12/07 13:38:59;;;;;;;;;;;23.00;88.90;;;;;;6304224;22;19989;-82
2020/12/07 13:41:49;;;;;;;;;;;22.90;88.80;;;;;;6282337;22;19923;-80
2020/12/07 13:44:25;;;;;;;;;;;22.90;88.90;;;;;;6277582;22;19919;-80
2020/12/07 13:46:57;;;;;;;;;;;22.90;88.90;;;;;;6312686;22;19933;-82
2020/12/07 13:49:24;;;;;;;;;;;22.80;88.80;;;;;;6273395;22;19925;-82
2020/12/07 13:52:07;;;;;;;;;;;22.80;88.80;;;;;;6275503;22;19919;-80
2020/12/07 13:58:53;;;;;;;;;;;22.60;89.10;;;;;;6174725;23;19919;-81
2020/12/07 14:02:29;;;;;;;;;;;22.60;90.00;;;;;;6220809;23;19964;-80
2020/12/07 14:43:00;;;;;;;;;;;23.30;78.00;;;;;;6156479;23;19939;-81
2020/12/07 14:45:41;;;;;;;;;;;23.30;78.40;;;;;;6188526;23;19919;-78
2020/12/07 14:48:10;;;;;;;;;;;23.30;78.70;;;;;;6216543;23;19922;-79
2020/12/07 14:50:46;;;;;;;;;;;23.30;79.60;;;;;;6188841;23;19919;-80
2020/12/07 14:53:47;;;;;;;;;;;23.30;80.30;;;;;;6113002;23;19932;-78
2020/12/07 15:03:32;;;;;;;;;;;23.10;82.10;;;;;;6112517;23;19921;-82
2020/12/07 15:06:58;;;;;;;;;;;23.10;82.20;;;;;;6082440;23;20900;-82
2020/12/07 15:15:14;;;;;;;;;;;22.90;82.80;;;;;;6185455;23;20111;-81
2020/12/07 15:19:03;;;;;;;;;;;22.80;83.20;;;;;;6169909;23;19976;-80
2020/12/07 15:22:10;;;;;;;;;;;;;;;;;;;;;
2020/12/07 15:25:01;;;;;;;;;;;22.70;83.60;;;;;;6190661;23;19932;-78
2020/12/07 15:28:03;;;;;;;;;;;22.70;83.50;;;;;;6165729;23;20204;-80
2020/12/07 15:38:50;;;;;;;;;;;22.60;84.10;;;;;;6253686;23;20133;-79
2020/12/07 15:42:05;;;;;;;;;;;22.50;84.30;;;;;;6217031;23;19934;-81
2020/12/07 15:44:46;;;;;;;;;;;22.50;84.40;;;;;;6243850;23;20397;-80
2020/12/07 15:47:19;;;;;;;;;;;22.50;84.40;;;;;;6282983;22;19989;-80
2020/12/07 15:50:01;;;;;;;;;;;22.30;64.10;;;;;;6281317;22;19919;-80
2020/12/07 15:52:46;;;;;;;;;;;21.80;61.10;;;;;;6314566;22;19921;-80
2020/12/07 15:55:29;;;;;;;;;;;21.20;62.00;;;;;;6294126;22;19929;-81
2020/12/07 15:58:26;;;;;;;;;;;21.00;65.50;;;;;;6196307;23;19958;-82
2020/12/07 16:01:08;;;;;;;;;;;21.00;67.00;;;;;;6173401;23;19926;-78
2020/12/07 16:03:49;;;;;;;;;;;21.10;68.00;;;;;;6158126;23;19927;-80
2020/12/07 16:06:23;;;;;;;;;;;21.30;68.50;;;;;;6159713;23;19927;-81
2020/12/07 16:08:56;;;;;;;;;;;21.50;69.30;;;;;;6158640;23;19920;-82
2020/12/07 16:11:29;;;;;;;;;;;21.70;69.80;;;;;;6184502;23;19920;-81
2020/12/07 16:17:33;;;;;;;;;;;21.90;71.70;;;;;;6190228;23;19908;-81
2020/12/07 16:20:00;;;;;;;;;;;22.00;76.10;;;;;;6191351;23;19930;-82
2020/12/07 16:22:36;;;;;;;;;;;22.10;83.60;;;;;;6164153;23;19917;-82
2020/12/07 16:25:12;;;;;;;;;;;22.20;91.40;;;;;;6166301;23;19959;-82
2020/12/07 16:50:38;;;;;;;;;;;22.20;77.50;;;;;;6296757;22;19913;-81
2020/12/07 16:53:17;;;;;;;;;;;22.90;77.10;;;;;;6261551;22;19925;-80
2020/12/07 16:55:52;;;;;;;;;;;23.30;76.90;;;;;;6268827;22;19919;-79
2020/12/07 16:58:22;;;;;;;;;;;23.30;76.40;;;;;;6295698;22;19926;-79
2020/12/07 17:00:52;;;;;;;;;;;23.30;76.00;;;;;;6291616;22;19925;-80
2020/12/07 17:03:45;;;;;;;;;;;23.30;76.40;;;;;;6284762;22;19933;-79
2020/12/07 17:09:34;;;;;;;;;;;23.50;74.70;;;;;;6279858;22;20334;-82
2020/12/07 17:12:29;;;;;;;;;;;23.60;74.90;;;;;;6282359;22;19915;-82
2020/12/07 17:15:22;;;;;;;;;;;23.60;75.50;;;;;;6282746;22;19919;-80
2020/12/07 17:21:43;;;;;;;;;;;23.40;75.90;;;;;;6287870;22;19925;-81
2020/12/07 17:24:36;;;;;;;;;;;23.30;76.10;;;;;;6253972;22;19921;-82
2020/12/07 17:27:46;;;;;;;;;;;23.20;76.60;;;;;;6255210;22;19919;-82
2020/12/07 17:30:48;;;;;;;;;;;23.10;76.80;;;;;;6277839;22;19922;-81
2020/12/07 17:33:39;;;;;;;;;;;23.00;77.70;;;;;;6285372;22;20145;-80
2020/12/07 17:36:12;;;;;;;;;;;22.90;77.50;;;;;;6263758;22;19915;-82
2020/12/07 17:38:55;;;;;;;;;;;22.80;77.70;;;;;;6290064;22;19919;-80
2020/12/07 17:41:28;;;;;;;;;;;22.70;78.00;;;;;;6296985;22;19921;-80
2020/12/07 17:51:51;;;;;;;;;;;22.40;79.10;;;;;;6111221;23;19916;-82
2020/12/07 18:02:56;;;;;;;;;;;22.20;79.80;;;;;;6113088;23;19915;-81
2020/12/07 18:05:26;;;;;;;;;;;22.20;80.20;;;;;;6113407;23;19924;-80
2020/12/07 18:08:09;;;;;;;;;;;22.10;80.20;;;;;;6074920;23;19927;-80
2020/12/07 18:11:09;;;;;;;;;;;22.20;80.20;;;;;;6120248;23;19927;-80
2020/12/07 18:14:18;;;;;;;;;;;22.30;79.90;;;;;;6102408;23;20060;-79
2020/12/07 18:17:08;;;;;;;;;;;22.40;79.50;;;;;;6132361;23;19921;-81
2020/12/07 18:20:10;;;;;;;;;;;22.40;79.50;;;;;;6051300;23;19924;-80
2020/12/07 18:23:54;;;;;;;;;;;22.40;79.50;;;;;;6100546;23;20207;-83
2020/12/07 18:35:00;;;;;;;;;;;22.30;80.00;;;;;;6197408;23;19931;-81
2020/12/07 18:38:02;;;;;;;;;;;22.30;80.00;;;;;;6196690;23;19923;-78
2020/12/07 18:44:29;;;;;;;;;;;22.40;79.70;;;;;;6167346;23;19911;-81
2020/12/07 18:47:03;;;;;;;;;;;22.50;79.50;;;;;;6192902;23;20371;-81
2020/12/07 18:50:09;;;;;;;;;;;22.40;79.40;;;;;;6218599;23;19920;-81
2020/12/07 18:52:59;;;;;;;;;;;22.40;79.50;;;;;;6226661;23;19919;-82
2020/12/07 18:56:02;;;;;;;;;;;22.30;79.70;;;;;;6227268;23;19920;-80
2020/12/07 18:58:42;;;;;;;;;;;22.30;79.90;;;;;;6221000;23;20693;-83
2020/12/07 19:01:11;;;;;;;;;;;22.30;80.20;;;;;;6195180;23;19916;-83
2020/12/07 19:03:41;;;;;;;;;;;22.40;80.50;;;;;;6194692;23;20363;-82
2020/12/07 19:06:11;;;;;;;;;;;22.40;81.10;;;;;;6224886;23;19927;-79
2020/12/07 19:08:38;;;;;;;;;;;22.50;80.80;;;;;;6268409;23;19919;-80
2020/12/07 19:11:06;;;;;;;;;;;22.40;80.60;;;;;;6267594;23;19915;-78
2020/12/07 19:13:33;;;;;;;;;;;22.30;80.70;;;;;;6237900;23;19919;-82
2020/12/07 19:16:01;;;;;;;;;;;22.20;81.10;;;;;;6256480;23;19919;-82
2020/12/07 19:18:34;;;;;;;;;;;22.20;81.60;;;;;;6228006;23;19919;-82
2020/12/07 19:21:02;;;;;;;;;;;22.10;82.00;;;;;;6239749;23;19920;-81
2020/12/07 19:23:32;;;;;;;;;;;22.00;82.20;;;;;;6231960;23;19916;-81
2020/12/07 19:25:59;;;;;;;;;;;21.90;82.50;;;;;;6228767;23;19925;-81
2020/12/07 19:28:27;;;;;;;;;;;21.80;82.90;;;;;;6253448;23;20327;-81
2020/12/07 19:30:54;;;;;;;;;;;21.80;83.20;;;;;;6253870;23;19926;-80
2020/12/07 19:33:23;;;;;;;;;;;21.70;83.50;;;;;;6251452;23;19920;-81
2020/12/07 19:35:53;;;;;;;;;;;21.60;83.80;;;;;;6249614;23;20331;-82
2020/12/07 19:38:23;;;;;;;;;;;21.60;84.00;;;;;;6257070;23;19926;-81
2020/12/07 19:40:53;;;;;;;;;;;21.50;84.30;;;;;;6205573;23;19915;-81
2020/12/07 19:43:23;;;;;;;;;;;21.50;84.60;;;;;;6198001;23;19923;-81
2020/12/07 19:45:52;;;;;;;;;;;21.50;85.00;;;;;;6243936;22;19915;-83
2020/12/07 19:48:22;;;;;;;;;;;21.40;85.10;;;;;;6285364;22;19922;-83
2020/12/07 19:50:50;;;;;;;;;;;21.40;85.80;;;;;;6280444;22;19926;-83
2020/12/07 19:53:17;;;;;;;;;;;21.40;85.80;;;;;;6281697;22;19937;-83
2020/12/07 19:55:44;;;;;;;;;;;21.40;85.80;;;;;;6279670;22;19915;-84
2020/12/07 19:58:11;;;;;;;;;;;21.30;85.90;;;;;;6278300;22;19921;-81
2020/12/07 20:00:39;;;;;;;;;;;21.30;86.10;;;;;;6279879;22;19920;-83
2020/12/07 20:03:11;;;;;;;;;;;21.30;86.20;;;;;;6278721;22;19915;-78
2020/12/07 20:05:41;;;;;;;;;;;21.30;86.40;;;;;;6278952;22;19939;-83
2020/12/07 20:08:10;;;;;;;;;;;21.30;86.60;;;;;;6277207;22;19930;-83
2020/12/07 20:10:43;;;;;;;;;;;21.30;86.80;;;;;;6288010;22;19919;-81
2020/12/07 20:13:13;;;;;;;;;;;21.30;86.90;;;;;;6279087;22;19915;-81
2020/12/07 20:15:41;;;;;;;;;;;21.30;87.00;;;;;;6282526;22;19915;-80
2020/12/07 20:18:11;;;;;;;;;;;21.30;87.00;;;;;;6278229;22;19915;-80
2020/12/07 20:20:39;;;;;;;;;;;21.30;87.00;;;;;;6281118;22;19919;-81
2020/12/07 20:23:06;;;;;;;;;;;21.30;86.90;;;;;;6280233;22;19922;-79
2020/12/07 20:25:33;;;;;;;;;;;21.40;86.90;;;;;;6280828;22;20385;-83
2020/12/07 20:28:00;;;;;;;;;;;21.40;86.90;;;;;;6279426;22;19919;-84
2020/12/07 20:30:33;;;;;;;;;;;21.50;87.20;;;;;;6289245;22;19929;-84
2020/12/07 20:33:03;;;;;;;;;;;21.60;88.60;;;;;;6286963;22;19922;-86
2020/12/07 20:35:30;;;;;;;;;;;21.50;90.00;;;;;;6297614;22;19915;-81
2020/12/07 20:38:20;;;;;;;;;;;21.50;89.30;;;;;;6297516;22;19929;-82
2020/12/07 20:40:48;;;;;;;;;;;21.50;88.70;;;;;;6310606;22;19921;-82
2020/12/07 20:43:15;;;;;;;;;;;21.50;89.80;;;;;;6292961;22;20293;-82
2020/12/07 20:45:42;;;;;;;;;;;21.50;89.60;;;;;;6284866;22;19915;-80
2020/12/07 20:48:09;;;;;;;;;;;21.40;89.60;;;;;;6281759;22;19922;-81
2020/12/07 20:50:40;;;;;;;;;;;21.50;90.00;;;;;;6283282;22;20346;-83
2020/12/07 20:53:08;;;;;;;;;;;21.40;90.00;;;;;;6255180;22;19921;-80
2020/12/07 20:55:38;;;;;;;;;;;21.40;89.90;;;;;;6280912;22;19922;-82
2020/12/07 20:58:08;;;;;;;;;;;21.30;89.80;;;;;;6256856;22;19925;-82
2020/12/07 21:00:35;;;;;;;;;;;21.30;90.00;;;;;;6288090;22;19915;-81
2020/12/07 21:03:03;;;;;;;;;;;21.40;90.10;;;;;;6290984;22;19921;-81
2020/12/07 21:05:39;;;;;;;;;;;21.40;89.10;;;;;;6286190;22;19919;-80
2020/12/07 21:08:20;;;;;;;;;;;20.80;65.00;;;;;;6291440;22;19969;-84
2020/12/07 21:10:52;;;;;;;;;;;19.40;62.30;;;;;;6260304;22;19921;-83
2020/12/07 21:13:22;;;;;;;;;;;19.00;69.60;;;;;;6255062;22;20258;-82
2020/12/07 21:15:55;;;;;;;;;;;18.90;75.20;;;;;;6286347;22;19921;-82
2020/12/07 21:18:40;;;;;;;;;;;19.10;75.50;;;;;;6296372;22;19922;-83
2020/12/07 21:21:28;;;;;;;;;;;19.30;75.00;;;;;;6268011;22;19937;-85
2020/12/07 21:24:20;;;;;;;;;;;19.60;74.90;;;;;;6269184;22;19915;-83
2020/12/07 21:26:56;;;;;;;;;;;19.80;75.00;;;;;;6274310;22;19915;-83
2020/12/07 21:29:39;;;;;;;;;;;20.00;75.20;;;;;;6261858;22;19929;-83
2020/12/07 21:32:13;;;;;;;;;;;20.10;75.40;;;;;;6258063;22;19915;-82
2020/12/07 21:34:42;;;;;;;;;;;20.20;75.80;;;;;;6257564;22;19930;-80
2020/12/07 21:37:21;;;;;;;;;;;20.30;76.10;;;;;;6288778;22;19919;-82
2020/12/07 21:39:52;;;;;;;;;;;20.30;76.40;;;;;;6288272;22;19921;-82
2020/12/07 21:42:19;;;;;;;;;;;20.40;76.70;;;;;;6283450;22;19919;-82
2020/12/07 21:44:47;;;;;;;;;;;20.40;77.00;;;;;;6255088;22;19925;-83
2020/12/07 21:47:29;;;;;;;;;;;20.40;77.30;;;;;;6281100;22;19915;-78
2020/12/07 21:50:45;;;;;;;;;;;;;;;;;;;;;
2020/12/07 21:54:03;;;;;;;;;;;20.40;78.00;;;;;;6287225;22;19925;-80
2020/12/07 21:56:59;;;;;;;;;;;20.40;78.50;;;;;;6277816;22;19933;-83
2020/12/07 21:59:50;;;;;;;;;;;20.40;78.90;;;;;;6287829;22;19915;-80
2020/12/07 22:02:36;;;;;;;;;;;20.40;79.20;;;;;;6260413;22;19925;-83